createdAt,value
2023-03-28T00:00:06.732Z,3.93
2023-03-28T00:01:07.446Z,3.95
2023-03-28T00:02:04.232Z,3.68
2023-03-28T00:03:01.284Z,3.12
2023-03-28T00:03:58.051Z,4.40
2023-03-28T00:04:54.844Z,3.52
2023-03-28T00:05:51.713Z,4.31
2023-03-28T00:06:53.519Z,4.26
2023-03-28T00:07:54.035Z,3.21
2023-03-28T00:08:51.283Z,1.63
2023-03-28T00:09:49.370Z,3.81
2023-03-28T00:10:46.273Z,4.31
2023-03-28T00:11:43.268Z,3.40
2023-03-28T00:12:40.183Z,3.68
2023-03-28T00:13:38.158Z,3.97
2023-03-28T00:14:38.804Z,2.55
2023-03-28T00:15:40.247Z,3.32
2023-03-28T00:16:39.549Z,2.76
2023-03-28T00:17:36.466Z,3.77
2023-03-28T00:18:37.655Z,3.72
2023-03-28T00:19:34.703Z,3.87
2023-03-28T00:20:32.102Z,2.61
2023-03-28T00:21:32.302Z,2.94
2023-03-28T00:22:30.845Z,2.79
2023-03-28T00:23:29.010Z,3.84
2023-03-28T00:24:26.450Z,3.76
2023-03-28T00:25:23.197Z,3.96
2023-03-28T00:26:22.523Z,2.78
2023-03-28T00:27:19.311Z,3.60
2023-03-28T00:28:16.317Z,1.59
2023-03-28T00:29:20.969Z,3.30
2023-03-28T00:30:18.077Z,3.69
2023-03-28T00:31:15.545Z,3.99
2023-03-28T00:32:12.421Z,4.07
2023-03-28T00:33:09.303Z,3.57
2023-03-28T00:34:07.128Z,3.72
2023-03-28T00:35:04.400Z,2.91
2023-03-28T00:36:01.650Z,3.28
2023-03-28T00:36:58.764Z,2.77
2023-03-28T00:37:58.011Z,3.93
2023-03-28T00:38:59.047Z,2.57
2023-03-28T00:39:55.800Z,3.17
2023-03-28T00:40:55.828Z,0.24
2023-03-28T00:41:56.226Z,3.28
2023-03-28T00:42:54.035Z,1.46
2023-03-28T00:43:54.264Z,2.37
2023-03-28T00:44:58.128Z,3.21
2023-03-28T00:46:08.279Z,2.92
2023-03-28T00:47:17.544Z,3.30
2023-03-28T00:48:15.477Z,1.52
2023-03-28T00:49:22.645Z,2.90
2023-03-28T00:50:27.426Z,2.85
2023-03-28T00:51:30.052Z,2.94
2023-03-28T00:52:31.597Z,3.03
2023-03-28T00:53:28.418Z,2.81
2023-03-28T00:54:29.588Z,3.12
2023-03-28T00:55:35.769Z,2.41
2023-03-28T00:56:37.039Z,1.93
2023-03-28T00:57:34.971Z,3.30
2023-03-28T00:58:37.629Z,2.36
2023-03-28T00:59:38.178Z,0.65
2023-03-28T01:00:36.651Z,2.17
2023-03-28T01:01:34.109Z,1.78
2023-03-28T01:02:31.082Z,1.41
2023-03-28T01:03:34.095Z,2.37
2023-03-28T01:04:49.636Z,0.28
2023-03-28T01:05:47.965Z,3.17
2023-03-28T01:06:47.899Z,2.48
2023-03-28T01:07:51.564Z,2.42
2023-03-28T01:08:50.876Z,1.51
2023-03-28T01:09:49.396Z,3.28
2023-03-28T01:10:46.378Z,1.92
2023-03-28T01:11:45.810Z,2.30
2023-03-28T01:12:44.116Z,2.83
2023-03-28T01:13:47.407Z,2.91
2023-03-28T01:14:45.647Z,3.16
2023-03-28T01:15:44.384Z,3.03
2023-03-28T01:16:43.039Z,3.03
2023-03-28T01:17:41.503Z,2.92
2023-03-28T01:18:41.329Z,3.13
2023-03-28T01:19:59.197Z,1.85
2023-03-28T01:21:11.834Z,3.17
2023-03-28T01:22:12.976Z,3.08
2023-03-28T01:23:30.003Z,2.97
2023-03-28T01:24:35.418Z,3.11
2023-03-28T01:25:59.190Z,3.16
2023-03-28T01:27:08.726Z,2.87
2023-03-28T01:28:14.476Z,2.41
2023-03-28T01:29:27.564Z,3.16
2023-03-28T01:30:39.590Z,3.17
2023-03-28T01:32:14.091Z,2.83
2023-03-28T01:33:41.611Z,2.84
2023-03-28T01:35:09.192Z,2.72
2023-03-28T01:36:43.453Z,2.86
2023-03-28T01:38:04.677Z,2.98
2023-03-28T01:39:05.340Z,2.77
2023-03-28T01:40:23.069Z,2.89
2023-03-28T01:41:34.514Z,2.59
2023-03-28T01:42:47.670Z,3.12
2023-03-28T01:43:53.473Z,3.00
2023-03-28T01:45:08.838Z,2.86
2023-03-28T01:46:16.118Z,3.14
2023-03-28T01:47:18.808Z,3.02
2023-03-28T01:49:04.940Z,2.58
2023-03-28T01:50:25.827Z,2.82
2023-03-28T01:51:48.240Z,2.67
2023-03-28T01:53:06.470Z,2.85
2023-03-28T01:54:30.800Z,2.91
2023-03-28T01:56:09.888Z,2.60
2023-03-28T01:57:29.936Z,2.30
2023-03-28T01:58:52.531Z,2.59
2023-03-28T02:00:19.621Z,2.67
2023-03-28T02:01:26.327Z,1.63
2023-03-28T02:03:18.695Z,2.61
2023-03-28T02:04:21.330Z,2.52
2023-03-28T02:05:22.499Z,2.22
2023-03-28T02:06:22.919Z,2.76
2023-03-28T02:07:24.828Z,1.16
2023-03-28T02:08:24.578Z,2.29
2023-03-28T02:09:26.397Z,2.37
2023-03-28T02:10:28.118Z,2.73
2023-03-28T02:11:28.396Z,1.95
2023-03-28T02:12:36.655Z,2.17
2023-03-28T02:13:43.378Z,1.86
2023-03-28T02:14:43.474Z,0.83
2023-03-28T02:15:46.944Z,2.18
2023-03-28T02:16:50.209Z,2.34
2023-03-28T02:17:54.217Z,2.63
2023-03-28T02:18:56.656Z,2.88
2023-03-28T02:20:08.803Z,1.61
2023-03-28T02:21:10.952Z,2.58
2023-03-28T02:22:32.776Z,2.34
2023-03-28T02:23:44.210Z,2.26
2023-03-28T02:24:41.476Z,2.67
2023-03-28T02:25:39.161Z,2.50
2023-03-28T02:26:37.204Z,1.98
2023-03-28T02:27:39.492Z,2.54
2023-03-28T02:28:38.583Z,2.83
2023-03-28T02:29:39.215Z,1.91
2023-03-28T02:30:36.382Z,2.81
2023-03-28T02:31:33.429Z,1.71
2023-03-28T02:32:34.032Z,2.40
2023-03-28T02:33:33.594Z,2.83
2023-03-28T02:34:31.690Z,2.78
2023-03-28T02:35:55.614Z,2.83
2023-03-28T02:37:11.414Z,1.77
2023-03-28T02:38:26.626Z,3.05
2023-03-28T02:39:51.436Z,2.67
2023-03-28T02:41:11.103Z,2.68
2023-03-28T02:42:29.631Z,2.78
2023-03-28T02:43:29.522Z,2.86
2023-03-28T02:44:37.235Z,2.94
2023-03-28T02:46:17.650Z,2.89
2023-03-28T02:47:20.482Z,3.00
2023-03-28T02:48:35.800Z,2.52
2023-03-28T02:49:55.963Z,2.40
2023-03-28T02:51:04.496Z,1.12
2023-03-28T02:52:35.497Z,3.29
2023-03-28T02:53:57.809Z,3.26
2023-03-28T02:55:03.539Z,2.48
2023-03-28T02:56:37.182Z,3.02
2023-03-28T02:57:45.710Z,1.93
2023-03-28T02:58:55.653Z,2.45
2023-03-28T02:59:59.806Z,2.84
2023-03-28T03:00:57.554Z,2.82
2023-03-28T03:01:54.835Z,1.07
2023-03-28T03:02:52.467Z,2.76
2023-03-28T03:03:50.178Z,3.09
2023-03-28T03:04:47.798Z,2.24
2023-03-28T03:05:44.615Z,3.23
2023-03-28T03:06:42.436Z,3.18
2023-03-28T03:07:39.914Z,2.73
2023-03-28T03:08:36.711Z,2.27
2023-03-28T03:09:34.598Z,1.83
2023-03-28T03:10:31.419Z,2.77
2023-03-28T03:11:28.892Z,2.21
2023-03-28T03:12:26.855Z,2.25
2023-03-28T03:13:24.119Z,2.04
2023-03-28T03:14:21.385Z,2.05
2023-03-28T03:15:18.202Z,0.48
2023-03-28T03:16:15.041Z,2.58
2023-03-28T03:17:11.845Z,2.77
2023-03-28T03:18:08.554Z,2.18
2023-03-28T03:19:05.719Z,2.56
2023-03-28T03:20:06.744Z,2.65
2023-03-28T03:21:03.958Z,2.66
2023-03-28T03:22:01.946Z,1.86
2023-03-28T03:23:02.627Z,2.42
2023-03-28T03:23:59.356Z,2.42
2023-03-28T03:25:06.548Z,1.97
2023-03-28T03:26:03.715Z,1.74
2023-03-28T03:27:00.547Z,1.54
2023-03-28T03:27:57.515Z,1.73
2023-03-28T03:28:55.269Z,2.40
2023-03-28T03:29:52.123Z,1.41
2023-03-28T03:30:48.905Z,2.65
2023-03-28T03:31:46.259Z,0.07
2023-03-28T03:32:44.262Z,1.68
2023-03-28T03:33:44.269Z,1.31
2023-03-28T03:34:41.554Z,-0.08
2023-03-28T03:35:38.598Z,1.96
2023-03-28T03:36:35.402Z,1.31
2023-03-28T03:37:32.240Z,2.20
2023-03-28T03:38:29.026Z,0.27
2023-03-28T03:39:25.963Z,2.77
2023-03-28T03:40:22.752Z,1.94
2023-03-28T03:41:19.567Z,2.08
2023-03-28T03:42:16.872Z,2.01
2023-03-28T03:43:13.623Z,2.41
2023-03-28T03:44:10.362Z,2.18
2023-03-28T03:45:07.811Z,1.77
2023-03-28T03:46:05.074Z,2.22
2023-03-28T03:47:02.138Z,1.35
2023-03-28T03:47:58.938Z,1.62
2023-03-28T03:48:55.856Z,2.45
2023-03-28T03:49:52.768Z,2.48
2023-03-28T03:52:03.969Z,1.74
2023-03-28T03:53:00.984Z,2.24
2023-03-28T03:53:58.566Z,1.98
2023-03-28T03:54:55.372Z,1.59
2023-03-28T03:55:52.383Z,0.87
2023-03-28T03:56:49.210Z,2.18
2023-03-28T03:57:46.241Z,2.28
2023-03-28T03:58:43.080Z,2.29
2023-03-28T03:59:39.863Z,2.14
2023-03-28T04:00:37.761Z,1.47
2023-03-28T04:01:34.510Z,1.33
2023-03-28T04:02:31.558Z,0.03
2023-03-28T04:03:28.967Z,2.09
2023-03-28T04:04:26.218Z,2.14
2023-03-28T04:05:23.445Z,1.93
2023-03-28T04:06:20.335Z,2.15
2023-03-28T04:07:17.149Z,2.12
2023-03-28T04:08:13.923Z,1.49
2023-03-28T04:09:10.762Z,2.12
2023-03-28T04:10:07.978Z,1.68
2023-03-28T04:11:05.014Z,1.94
2023-03-28T04:12:01.816Z,1.90
2023-03-28T04:12:58.650Z,2.26
2023-03-28T04:13:55.587Z,-0.24
2023-03-28T04:14:52.527Z,1.25
2023-03-28T04:15:49.450Z,2.54
2023-03-28T04:16:46.567Z,2.66
2023-03-28T04:17:44.272Z,2.13
2023-03-28T04:18:45.609Z,2.19
2023-03-28T04:19:43.893Z,2.39
2023-03-28T04:20:41.065Z,2.14
2023-03-28T04:21:42.879Z,0.97
2023-03-28T04:22:45.453Z,1.26
2023-03-28T04:23:48.357Z,2.01
2023-03-28T04:24:45.897Z,2.58
2023-03-28T04:25:42.660Z,2.33
2023-03-28T04:26:39.704Z,2.38
2023-03-28T04:27:36.480Z,2.66
2023-03-28T04:28:33.244Z,2.20
2023-03-28T04:29:32.839Z,1.51
2023-03-28T04:30:29.660Z,0.43
2023-03-28T04:31:29.598Z,1.72
2023-03-28T04:32:26.911Z,0.20
2023-03-28T04:33:25.283Z,0.89
2023-03-28T04:34:25.771Z,1.06
2023-03-28T04:35:24.308Z,2.14
2023-03-28T04:36:22.828Z,1.41
2023-03-28T04:37:20.258Z,1.63
2023-03-28T04:38:20.902Z,1.52
2023-03-28T04:39:18.266Z,1.96
2023-03-28T04:40:17.948Z,1.75
2023-03-28T04:41:16.889Z,1.41
2023-03-28T04:42:15.205Z,1.69
2023-03-28T04:43:11.928Z,2.23
2023-03-28T04:44:08.643Z,1.61
2023-03-28T04:45:07.134Z,1.59
2023-03-28T04:46:04.285Z,0.75
2023-03-28T04:47:01.170Z,1.72
2023-03-28T04:47:57.976Z,1.94
2023-03-28T04:48:56.574Z,2.37
2023-03-28T04:49:54.305Z,1.76
2023-03-28T04:50:51.213Z,2.33
2023-03-28T04:51:48.786Z,2.06
2023-03-28T04:52:45.933Z,2.14
2023-03-28T04:53:42.821Z,1.41
2023-03-28T04:54:39.604Z,1.32
2023-03-28T04:55:36.674Z,2.15
2023-03-28T04:56:33.466Z,1.90
2023-03-28T04:57:30.437Z,2.10
2023-03-28T04:58:27.219Z,1.39
2023-03-28T04:59:24.066Z,2.18
2023-03-28T05:00:22.366Z,2.26
2023-03-28T05:01:19.224Z,1.96
2023-03-28T05:02:16.059Z,1.84
2023-03-28T05:03:22.398Z,2.16
2023-03-28T05:04:21.428Z,1.84
2023-03-28T05:05:18.485Z,1.71
2023-03-28T05:06:15.452Z,2.01
2023-03-28T05:07:12.340Z,1.76
2023-03-28T05:08:09.141Z,1.70
2023-03-28T05:09:06.110Z,1.98
2023-03-28T05:10:03.509Z,2.24
2023-03-28T05:11:00.592Z,0.93
2023-03-28T05:11:57.518Z,2.21
2023-03-28T05:12:54.282Z,2.11
2023-03-28T05:13:51.665Z,0.75
2023-03-28T05:14:48.433Z,1.33
2023-03-28T05:15:47.215Z,2.32
2023-03-28T05:16:44.116Z,2.55
2023-03-28T05:17:41.166Z,1.62
2023-03-28T05:18:37.947Z,1.67
2023-03-28T05:19:34.794Z,2.38
2023-03-28T05:20:33.052Z,1.38
2023-03-28T05:21:29.884Z,2.78
2023-03-28T05:22:26.928Z,1.95
2023-03-28T05:23:23.793Z,2.67
2023-03-28T05:24:20.596Z,2.38
2023-03-28T05:25:18.964Z,2.83
2023-03-28T05:26:16.221Z,2.54
2023-03-28T05:27:12.984Z,1.20
2023-03-28T05:28:10.323Z,2.51
2023-03-28T05:29:07.135Z,2.74
2023-03-28T05:30:07.894Z,2.22
2023-03-28T05:31:06.621Z,2.50
2023-03-28T05:32:03.549Z,1.99
2023-03-28T05:33:01.021Z,2.20
2023-03-28T05:33:57.803Z,1.24
2023-03-28T05:34:54.545Z,2.26
2023-03-28T05:35:51.347Z,2.78
2023-03-28T05:36:48.141Z,2.22
2023-03-28T05:37:47.052Z,2.46
2023-03-28T05:38:44.058Z,2.38
2023-03-28T05:39:41.768Z,1.78
2023-03-28T05:40:38.628Z,1.86
2023-03-28T05:41:35.839Z,2.58
2023-03-28T05:42:33.636Z,2.60
2023-03-28T05:43:30.689Z,2.79
2023-03-28T05:44:27.628Z,1.72
2023-03-28T05:45:24.582Z,2.77
2023-03-28T05:46:21.450Z,1.36
2023-03-28T05:47:19.214Z,1.91
2023-03-28T05:48:16.216Z,1.84
2023-03-28T05:49:13.098Z,1.80
2023-03-28T05:50:11.177Z,2.10
2023-03-28T05:51:07.943Z,2.41
2023-03-28T05:52:04.881Z,2.42
2023-03-28T05:53:01.693Z,1.61
2023-03-28T05:53:58.502Z,2.75
2023-03-28T05:54:58.105Z,1.09
2023-03-28T05:55:54.886Z,1.63
2023-03-28T05:56:51.958Z,2.40
2023-03-28T05:57:48.752Z,2.36
2023-03-28T05:58:45.569Z,2.43
2023-03-28T05:59:42.874Z,1.95
2023-03-28T06:00:46.972Z,2.38
2023-03-28T06:01:46.315Z,2.57
2023-03-28T06:02:43.546Z,2.01
2023-03-28T06:03:42.715Z,2.24
2023-03-28T06:04:39.936Z,2.77
2023-03-28T06:05:37.932Z,2.60
2023-03-28T06:06:34.762Z,2.59
2023-03-28T06:07:41.873Z,1.63
2023-03-28T06:08:39.226Z,2.86
2023-03-28T06:09:36.213Z,1.99
2023-03-28T06:10:33.042Z,1.43
2023-03-28T06:11:30.016Z,2.03
2023-03-28T06:12:26.761Z,2.31
2023-03-28T06:13:23.516Z,2.65
2023-03-28T06:14:20.974Z,3.03
2023-03-28T06:15:17.866Z,2.87
2023-03-28T06:16:14.640Z,2.25
2023-03-28T06:17:11.494Z,2.76
2023-03-28T06:18:08.506Z,1.13
2023-03-28T06:19:17.085Z,2.55
2023-03-28T06:20:15.391Z,2.53
2023-03-28T06:21:12.346Z,1.73
2023-03-28T06:22:09.352Z,2.31
2023-03-28T06:23:06.141Z,2.61
2023-03-28T06:24:02.878Z,2.40
2023-03-28T06:24:59.750Z,2.35
2023-03-28T06:25:56.523Z,2.39
2023-03-28T06:26:53.302Z,0.58
2023-03-28T06:27:50.128Z,1.94
2023-03-28T06:28:46.869Z,2.82
2023-03-28T06:29:43.568Z,2.67
2023-03-28T06:30:40.526Z,2.08
2023-03-28T06:31:37.304Z,2.56
2023-03-28T06:32:34.167Z,1.88
2023-03-28T06:33:30.927Z,2.63
2023-03-28T06:34:27.793Z,0.47
2023-03-28T06:35:24.588Z,2.55
2023-03-28T06:36:21.845Z,0.65
2023-03-28T06:37:18.661Z,2.60
2023-03-28T06:38:15.437Z,2.34
2023-03-28T06:39:12.546Z,2.77
2023-03-28T06:40:09.969Z,3.01
2023-03-28T06:41:06.940Z,1.98
2023-03-28T06:42:03.998Z,2.79
2023-03-28T06:43:00.713Z,2.69
2023-03-28T06:43:57.508Z,0.00
2023-03-28T06:44:54.281Z,2.33
2023-03-28T06:45:51.702Z,1.12
2023-03-28T06:46:48.653Z,1.25
2023-03-28T06:47:45.929Z,2.38
2023-03-28T06:48:42.910Z,1.61
2023-03-28T06:49:39.687Z,0.10
2023-03-28T06:50:36.507Z,2.25
2023-03-28T06:51:33.661Z,1.37
2023-03-28T06:52:30.415Z,1.56
2023-03-28T06:53:28.154Z,2.44
2023-03-28T06:54:25.262Z,2.32
2023-03-28T06:55:22.826Z,1.78
2023-03-28T06:56:19.514Z,2.62
2023-03-28T06:57:16.727Z,2.53
2023-03-28T06:58:13.549Z,2.78
2023-03-28T06:59:10.336Z,1.90
2023-03-28T07:00:08.366Z,1.89
2023-03-28T07:01:05.672Z,2.15
2023-03-28T07:02:02.770Z,2.19
2023-03-28T07:02:59.775Z,2.42
2023-03-28T07:03:59.470Z,2.55
2023-03-28T07:04:56.575Z,2.43
2023-03-28T07:05:53.312Z,2.67
2023-03-28T07:06:50.280Z,2.98
2023-03-28T07:07:47.006Z,3.05
2023-03-28T07:08:43.867Z,1.89
2023-03-28T07:09:40.839Z,2.90
2023-03-28T07:10:39.477Z,2.87
2023-03-28T07:11:36.206Z,1.91
2023-03-28T07:12:33.052Z,2.81
2023-03-28T07:13:29.945Z,2.43
2023-03-28T07:14:26.922Z,2.34
2023-03-28T07:15:23.848Z,2.60
2023-03-28T07:16:21.045Z,2.68
2023-03-28T07:17:17.796Z,2.69
2023-03-28T07:18:14.736Z,2.07
2023-03-28T07:19:11.578Z,3.06
2023-03-28T07:20:08.661Z,3.30
2023-03-28T07:21:07.759Z,3.18
2023-03-28T07:22:04.835Z,2.20
2023-03-28T07:23:01.653Z,2.83
2023-03-28T07:23:58.412Z,2.14
2023-03-28T07:24:55.296Z,2.96
2023-03-28T07:25:52.021Z,2.46
2023-03-28T07:26:48.717Z,1.09
2023-03-28T07:27:45.477Z,1.77
2023-03-28T07:28:42.388Z,0.22
2023-03-28T07:29:42.376Z,2.62
2023-03-28T07:30:39.166Z,2.63
2023-03-28T07:31:36.197Z,2.63
2023-03-28T07:32:42.725Z,1.03
2023-03-28T07:33:50.239Z,2.38
2023-03-28T07:34:47.058Z,2.85
2023-03-28T07:35:46.795Z,2.60
2023-03-28T07:36:43.626Z,0.02
2023-03-28T07:37:40.508Z,2.15
2023-03-28T07:38:38.187Z,2.10
2023-03-28T07:39:39.846Z,1.78
2023-03-28T07:40:36.684Z,2.78
2023-03-28T07:41:33.676Z,2.76
2023-03-28T07:42:30.569Z,1.96
2023-03-28T07:43:27.350Z,1.65
2023-03-28T07:44:24.095Z,2.55
2023-03-28T07:45:21.014Z,-0.51
2023-03-28T07:46:21.023Z,2.20
2023-03-28T07:47:18.318Z,2.10
2023-03-28T07:48:15.368Z,2.75
2023-03-28T07:49:12.970Z,2.33
2023-03-28T07:50:10.238Z,1.75
2023-03-28T07:51:09.806Z,1.97
2023-03-28T07:52:06.840Z,2.98
2023-03-28T07:53:03.714Z,3.23
2023-03-28T07:54:01.734Z,1.33
2023-03-28T07:54:58.472Z,2.65
2023-03-28T07:55:56.191Z,2.26
2023-03-28T07:56:53.555Z,1.50
2023-03-28T07:57:50.518Z,1.96
2023-03-28T07:58:48.452Z,2.29
2023-03-28T07:59:45.766Z,1.46
2023-03-28T08:00:43.198Z,2.53
2023-03-28T08:01:44.750Z,2.52
2023-03-28T08:02:45.130Z,1.79
2023-03-28T08:03:42.925Z,1.28
2023-03-28T08:04:39.937Z,1.83
2023-03-28T08:05:37.856Z,2.84
2023-03-28T08:06:38.377Z,2.61
2023-03-28T08:07:36.675Z,2.27
2023-03-28T08:08:33.667Z,1.67
2023-03-28T08:09:30.457Z,2.23
2023-03-28T08:10:27.187Z,2.82
2023-03-28T08:11:24.065Z,1.74
2023-03-28T08:12:21.466Z,1.67
2023-03-28T08:13:21.120Z,2.72
2023-03-28T08:14:19.177Z,2.27
2023-03-28T08:15:15.995Z,2.42
2023-03-28T08:16:12.835Z,0.45
2023-03-28T08:17:10.677Z,1.84
2023-03-28T08:18:07.599Z,2.50
2023-03-28T08:19:11.145Z,2.86
2023-03-28T08:20:10.963Z,3.22
2023-03-28T08:21:08.183Z,1.25
2023-03-28T08:22:07.787Z,2.37
2023-03-28T08:23:04.683Z,1.48
2023-03-28T08:24:02.759Z,2.78
2023-03-28T08:25:07.737Z,2.38
2023-03-28T08:26:07.397Z,2.24
2023-03-28T08:27:04.881Z,2.96
2023-03-28T08:28:01.631Z,3.14
2023-03-28T08:29:05.820Z,3.07
2023-03-28T08:30:02.642Z,0.73
2023-03-28T08:30:59.666Z,2.32
2023-03-28T08:31:57.664Z,3.38
2023-03-28T08:32:54.541Z,3.16
2023-03-28T08:33:53.145Z,3.18
2023-03-28T08:34:49.893Z,2.69
2023-03-28T08:35:46.805Z,3.03
2023-03-28T08:36:43.705Z,0.46
2023-03-28T08:37:40.454Z,2.53
2023-03-28T08:38:37.315Z,3.02
2023-03-28T08:39:34.864Z,3.25
2023-03-28T08:40:33.529Z,3.02
2023-03-28T08:41:51.822Z,3.30
2023-03-28T08:43:14.803Z,3.22
2023-03-28T08:44:31.675Z,3.61
2023-03-28T08:45:42.339Z,3.36
2023-03-28T08:46:54.855Z,3.77
2023-03-28T08:48:00.732Z,3.79
2023-03-28T08:49:09.737Z,3.06
2023-03-28T08:50:18.129Z,3.19
2023-03-28T08:51:20.416Z,3.52
2023-03-28T08:52:20.505Z,2.66
2023-03-28T08:53:37.330Z,1.21
2023-03-28T08:54:49.692Z,3.27
2023-03-28T08:55:49.409Z,3.44
2023-03-28T08:56:53.408Z,3.02
2023-03-28T08:57:55.925Z,3.28
2023-03-28T08:59:12.874Z,3.29
2023-03-28T09:00:28.078Z,2.03
2023-03-28T09:01:29.696Z,3.44
2023-03-28T09:02:29.875Z,3.14
2023-03-28T09:03:26.881Z,4.54
2023-03-28T09:04:35.396Z,3.91
2023-03-28T09:05:49.860Z,3.10
2023-03-28T09:06:52.807Z,3.88
2023-03-28T09:08:31.388Z,4.04
2023-03-28T09:09:45.801Z,2.89
2023-03-28T09:10:56.552Z,3.33
2023-03-28T09:12:24.206Z,4.03
2023-03-28T09:13:36.298Z,3.07
2023-03-28T09:15:20.236Z,4.14
2023-03-28T09:16:35.370Z,3.48
2023-03-28T09:17:47.280Z,3.89
2023-03-28T09:19:21.219Z,3.60
2023-03-28T09:21:03.640Z,2.97
2023-03-28T09:22:17.246Z,2.54
2023-03-28T09:23:44.110Z,3.08
2023-03-28T09:24:58.309Z,3.57
2023-03-28T09:26:15.020Z,2.72
2023-03-28T09:27:20.151Z,3.54
2023-03-28T09:28:34.610Z,3.09
2023-03-28T09:29:36.755Z,2.54
2023-03-28T09:30:41.895Z,3.32
2023-03-28T09:31:46.249Z,2.26
2023-03-28T09:32:44.026Z,2.97
2023-03-28T09:33:47.254Z,3.24
2023-03-28T09:34:50.392Z,2.83
2023-03-28T09:35:50.545Z,2.73
2023-03-28T09:36:55.531Z,3.51
2023-03-28T09:38:05.043Z,3.73
2023-03-28T09:39:11.818Z,3.49
2023-03-28T09:40:29.192Z,4.10
2023-03-28T09:41:40.994Z,3.91
2023-03-28T09:42:46.770Z,3.13
2023-03-28T09:43:56.710Z,3.80
2023-03-28T09:45:03.636Z,3.88
2023-03-28T09:46:06.372Z,3.74
2023-03-28T09:47:12.340Z,3.72
2023-03-28T09:48:21.030Z,3.99
2023-03-28T09:49:21.587Z,3.01
2023-03-28T09:50:20.422Z,1.52
2023-03-28T09:51:19.881Z,3.24
2023-03-28T09:52:21.119Z,3.87
2023-03-28T09:53:26.257Z,3.88
2023-03-28T09:54:33.793Z,2.63
2023-03-28T09:55:31.265Z,3.20
2023-03-28T09:56:34.121Z,3.53
2023-03-28T09:58:05.851Z,4.07
2023-03-28T09:59:05.297Z,3.95
2023-03-28T10:00:07.405Z,3.94
2023-03-28T10:01:05.430Z,2.69
2023-03-28T10:02:04.148Z,2.97
2023-03-28T10:03:01.067Z,2.38
2023-03-28T10:03:58.208Z,2.49
2023-03-28T10:04:55.482Z,3.76
2023-03-28T10:05:52.811Z,3.87
2023-03-28T10:06:49.643Z,3.90
2023-03-28T10:07:46.503Z,4.50
2023-03-28T10:08:43.263Z,2.99
2023-03-28T10:09:51.948Z,2.18
2023-03-28T10:11:15.123Z,4.82
2023-03-28T10:12:38.548Z,3.86
2023-03-28T10:13:47.257Z,4.69
2023-03-28T10:14:47.498Z,4.07
2023-03-28T10:15:50.134Z,4.76
2023-03-28T10:16:47.730Z,4.56
2023-03-28T10:17:44.887Z,4.29
2023-03-28T10:18:43.230Z,5.08
2023-03-28T10:19:44.046Z,3.77
2023-03-28T10:20:41.542Z,3.77
2023-03-28T10:21:38.426Z,4.57
2023-03-28T10:22:37.948Z,4.29
2023-03-28T10:23:37.467Z,3.93
2023-03-28T10:24:35.170Z,4.86
2023-03-28T10:25:44.611Z,4.34
2023-03-28T10:26:41.767Z,3.55
2023-03-28T10:27:40.289Z,3.76
2023-03-28T10:28:37.733Z,3.93
2023-03-28T10:29:37.188Z,3.98
2023-03-28T10:30:37.617Z,3.83
2023-03-28T10:31:35.015Z,4.36
2023-03-28T10:32:32.323Z,3.33
2023-03-28T10:33:42.122Z,3.33
2023-03-28T10:34:39.364Z,3.57
2023-03-28T10:35:41.467Z,4.22
2023-03-28T10:36:42.948Z,4.46
2023-03-28T10:37:43.129Z,4.38
2023-03-28T10:38:43.396Z,4.23
2023-03-28T10:39:40.496Z,4.23
2023-03-28T10:40:37.259Z,3.65
2023-03-28T10:41:34.039Z,4.09
2023-03-28T10:42:42.887Z,3.33
2023-03-28T10:43:42.213Z,4.37
2023-03-28T10:44:40.683Z,3.16
2023-03-28T10:45:47.004Z,4.05
2023-03-28T10:46:43.803Z,3.84
2023-03-28T10:47:41.926Z,4.04
2023-03-28T10:48:41.805Z,2.99
2023-03-28T10:49:48.065Z,4.12
2023-03-28T10:50:49.255Z,4.33
2023-03-28T10:51:46.374Z,3.51
2023-03-28T10:53:02.844Z,3.90
2023-03-28T10:54:14.528Z,4.10
2023-03-28T10:55:23.441Z,4.77
2023-03-28T10:56:42.304Z,4.17
2023-03-28T10:58:13.694Z,4.45
2023-03-28T10:59:10.600Z,4.64
2023-03-28T11:00:22.681Z,3.36
2023-03-28T11:01:22.222Z,2.72
2023-03-28T11:02:41.063Z,4.41
2023-03-28T11:04:05.826Z,4.53
2023-03-28T11:05:27.982Z,4.78
2023-03-28T11:07:09.121Z,4.83
2023-03-28T11:08:33.423Z,4.78
2023-03-28T11:09:47.551Z,4.40
2023-03-28T11:10:50.252Z,4.45
2023-03-28T11:12:10.216Z,4.36
2023-03-28T11:13:12.294Z,3.73
2023-03-28T11:14:27.165Z,3.92
2023-03-28T11:15:38.878Z,4.02
2023-03-28T11:17:01.476Z,3.99
2023-03-28T11:17:58.268Z,4.48
2023-03-28T11:19:28.753Z,4.88
2023-03-28T11:20:32.815Z,4.51
2023-03-28T11:22:07.988Z,4.30
2023-03-28T11:23:23.106Z,4.57
2023-03-28T11:24:31.155Z,4.46
2023-03-28T11:25:37.057Z,3.46
2023-03-28T11:26:42.761Z,4.56
2023-03-28T11:27:42.169Z,4.83
2023-03-28T11:28:52.709Z,4.88
2023-03-28T11:29:59.019Z,4.25
2023-03-28T11:31:00.397Z,3.88
2023-03-28T11:32:29.786Z,4.78
2023-03-28T11:33:52.926Z,3.77
2023-03-28T11:35:07.092Z,4.85
2023-03-28T11:36:37.987Z,3.97
2023-03-28T11:37:49.616Z,4.52
2023-03-28T11:39:06.376Z,4.83
2023-03-28T11:40:15.304Z,4.21
2023-03-28T11:41:17.355Z,4.49
2023-03-28T11:42:54.147Z,4.23
2023-03-28T11:44:05.601Z,3.76
2023-03-28T11:45:49.460Z,3.65
2023-03-28T11:47:03.313Z,3.32
2023-03-28T11:48:20.304Z,4.25
2023-03-28T11:49:17.033Z,4.20
2023-03-28T11:50:15.112Z,4.51
2023-03-28T11:51:32.406Z,4.47
2023-03-28T11:52:39.785Z,3.82
2023-03-28T11:53:47.544Z,4.82
2023-03-28T11:54:52.814Z,4.12
2023-03-28T11:56:00.358Z,4.72
2023-03-28T11:57:03.822Z,4.33
2023-03-28T11:58:15.318Z,4.54
2023-03-28T11:59:38.627Z,4.34
2023-03-28T12:00:46.264Z,3.78
2023-03-28T12:01:50.647Z,4.75
2023-03-28T12:02:55.262Z,4.49
2023-03-28T12:04:01.526Z,5.45
2023-03-28T12:05:02.709Z,5.10
2023-03-28T12:06:12.552Z,4.36
2023-03-28T12:07:18.269Z,5.25
2023-03-28T12:08:30.145Z,3.66
2023-03-28T12:09:36.619Z,4.61
2023-03-28T12:10:36.680Z,4.79
2023-03-28T12:11:40.432Z,3.51
2023-03-28T12:12:55.858Z,4.59
2023-03-28T12:14:12.519Z,4.76
2023-03-28T12:15:26.345Z,4.22
2023-03-28T12:16:34.711Z,4.91
2023-03-28T12:17:40.496Z,4.80
2023-03-28T12:18:58.625Z,4.03
2023-03-28T12:19:56.486Z,4.14
2023-03-28T12:21:06.651Z,4.93
2023-03-28T12:22:15.385Z,3.48
2023-03-28T12:23:43.222Z,4.79
2023-03-28T12:24:55.583Z,5.17
2023-03-28T12:26:12.807Z,4.81
2023-03-28T12:27:43.543Z,4.73
2023-03-28T12:28:48.268Z,4.26
2023-03-28T12:29:48.063Z,4.63
2023-03-28T12:31:06.316Z,4.92
2023-03-28T12:32:07.007Z,4.29
2023-03-28T12:33:15.705Z,4.43
2023-03-28T12:34:23.526Z,4.59
2023-03-28T12:35:45.370Z,4.16
2023-03-28T12:36:57.587Z,4.62
2023-03-28T12:38:09.646Z,4.63
2023-03-28T12:39:24.914Z,4.69
2023-03-28T12:40:47.896Z,4.59
2023-03-28T12:41:46.273Z,4.49
2023-03-28T12:42:47.227Z,4.04
2023-03-28T12:44:22.290Z,4.64
2023-03-28T12:45:29.419Z,3.43
2023-03-28T12:46:46.412Z,4.49
2023-03-28T12:47:52.974Z,3.52
2023-03-28T12:49:01.807Z,4.06
2023-03-28T12:51:44.158Z,4.07
2023-03-28T12:52:45.419Z,3.88
2023-03-28T12:54:07.579Z,4.46
2023-03-28T12:55:26.975Z,4.59
2023-03-28T12:56:23.739Z,2.72
2023-03-28T12:57:40.427Z,4.95
2023-03-28T12:58:37.831Z,4.92
2023-03-28T12:59:41.083Z,4.99
2023-03-28T13:01:16.263Z,4.74
2023-03-28T13:02:15.828Z,5.32
2023-03-28T13:03:20.524Z,4.27
2023-03-28T13:04:36.010Z,3.75
2023-03-28T13:06:02.875Z,5.42
2023-03-28T13:07:21.405Z,5.04
2023-03-28T13:08:47.464Z,5.08
2023-03-28T13:10:01.825Z,4.03
2023-03-28T13:11:28.488Z,4.93
2023-03-28T13:12:48.184Z,4.95
2023-03-28T13:14:07.731Z,5.14
2023-03-28T13:15:13.498Z,5.34
2023-03-28T13:16:12.993Z,5.41
2023-03-28T13:17:24.275Z,5.17
2023-03-28T13:18:21.388Z,4.93
2023-03-28T13:19:20.322Z,3.98
2023-03-28T13:20:17.580Z,5.44
2023-03-28T13:21:41.829Z,5.46
2023-03-28T13:22:58.213Z,5.35
2023-03-28T13:23:55.255Z,4.80
2023-03-28T13:24:52.085Z,4.90
2023-03-28T13:25:59.044Z,3.91
2023-03-28T13:27:12.532Z,5.22
2023-03-28T13:28:12.300Z,5.27
2023-03-28T13:29:09.194Z,4.34
2023-03-28T13:30:16.312Z,4.88
2023-03-28T13:31:26.549Z,5.07
2023-03-28T13:32:25.601Z,4.90
2023-03-28T13:33:33.229Z,5.69
2023-03-28T13:34:33.984Z,5.12
2023-03-28T13:36:08.828Z,5.79
2023-03-28T13:37:27.126Z,5.20
2023-03-28T13:38:29.748Z,5.93
2023-03-28T13:39:27.583Z,4.63
2023-03-28T13:40:42.860Z,5.55
2023-03-28T13:41:42.335Z,5.70
2023-03-28T13:42:57.812Z,4.33
2023-03-28T13:43:59.360Z,5.50
2023-03-28T13:45:13.640Z,5.55
2023-03-28T13:46:28.808Z,4.57
2023-03-28T13:47:35.027Z,5.36
2023-03-28T13:48:44.292Z,5.29
2023-03-28T13:50:08.082Z,4.21
2023-03-28T13:51:11.380Z,3.15
2023-03-28T13:52:10.921Z,5.71
2023-03-28T13:53:07.992Z,5.36
2023-03-28T13:54:04.809Z,4.92
2023-03-28T13:55:19.383Z,5.20
2023-03-28T13:56:18.894Z,4.56
2023-03-28T13:57:18.970Z,4.70
2023-03-28T13:58:16.729Z,5.45
2023-03-28T13:59:56.120Z,5.59
2023-03-28T14:01:08.000Z,5.80
2023-03-28T14:02:18.518Z,6.10
2023-03-28T14:03:16.093Z,6.06
2023-03-28T14:04:20.455Z,5.14
2023-03-28T14:05:24.426Z,5.86
2023-03-28T14:06:23.957Z,4.21